Time,TemperatureF,DewpointF,PressureIn,WindDirection,WindDirectionDegrees,WindSpeedMPH,WindSpeedGustMPH,Humidity,HourlyPrecipIn,Conditions,Clouds,dailyrainin,SoftwareType,DateUTC
2013-02-08 00:00:00,38.3,37.0,29.99,NNE,26,0.0,1.0,95,0.01,,,0.00,WUHU216DAVISVP2,2013-02-08 08:00:00,
2013-02-08 00:05:00,38.2,36.6,29.99,NNE,24,0.0,1.0,94,0.01,,,0.00,WUHU216DAVISVP2,2013-02-08 08:05:00,
2013-02-08 00:10:00,38.1,36.5,29.99,NNE,24,0.0,1.0,94,0.00,,,0.00,WUHU216DAVISVP2,2013-02-08 08:10:00,
2013-02-08 00:15:00,37.9,36.6,29.99,WNW,294,0.0,2.0,95,0.00,,,0.00,WUHU216DAVISVP2,2013-02-08 08:15:00,
2013-02-08 00:20:00,37.8,36.5,29.99,NW,316,1.0,3.0,95,0.00,,,0.00,WUHU216DAVISVP2,2013-02-08 08:20:00,
2013-02-08 00:25:00,37.7,36.4,29.99,NW,316,0.0,3.0,95,0.00,,,0.00,WUHU216DAVISVP2,2013-02-08 08:25:00,
2013-02-08 00:30:00,37.7,36.4,29.99,NNW,329,0.0,3.0,95,0.00,,,0.00,WUHU216DAVISVP2,2013-02-08 08:30:00,
2013-02-08 00:35:00,37.6,36.3,29.99,NNW,329,0.0,3.0,95,0.00,,,0.00,WUHU216DAVISVP2,2013-02-08 08:35:00,
2013-02-08 00:40:00,37.7,36.4,29.99,NNW,329,0.0,3.0,95,0.00,,,0.00,WUHU216DAVISVP2,2013-02-08 08:40:00,
2013-02-08 00:45:00,37.5,36.2,29.99,NNW,329,0.0,1.0,95,0.00,,,0.00,WUHU216DAVISVP2,2013-02-08 08:45:00,
2013-02-08 00:50:00,37.4,36.1,29.98,NNW,329,0.0,0.0,95,0.00,,,0.00,WUHU216DAVISVP2,2013-02-08 08:50:00,
2013-02-08 00:56:00,37.3,36.0,29.98,NNW,329,0.0,1.0,95,0.00,,,0.00,WUHU216DAVISVP2,2013-02-08 08:56:00,
2013-02-08 01:00:00,37.3,36.0,29.98,NNW,338,0.0,2.0,95,0.00,,,0.00,WUHU216DAVISVP2,2013-02-08 09:00:00,
2013-02-08 01:01:00,37.2,35.9,29.98,NNW,328,0.0,2.0,95,0.00,,,0.00,WUHU216DAVISVP2,2013-02-08 09:01:00,
2013-02-08 01:06:00,37.2,35.9,29.98,NNW,329,0.0,2.0,95,0.00,,,0.00,WUHU216DAVISVP2,2013-02-08 09:06:00,
2013-02-08 01:11:00,37.2,35.9,29.98,NNW,328,0.0,2.0,95,0.00,,,0.00,WUHU216DAVISVP2,2013-02-08 09:11:00,
2013-02-08 01:16:00,37.1,35.8,29.97,NNW,329,0.0,2.0,95,0.00,,,0.00,WUHU216DAVISVP2,2013-02-08 09:16:00,
2013-02-08 01:21:00,37.1,36.0,29.97,NNW,328,0.0,1.0,96,0.00,,,0.00,WUHU216DAVISVP2,2013-02-08 09:21:00,
2013-02-08 01:26:00,37.2,36.2,29.97,NNW,328,0.0,1.0,96,0.00,,,0.00,WUHU216DAVISVP2,2013-02-08 09:26:00,
2013-02-08 01:30:00,37.2,36.2,29.97,NNW,338,0.0,1.0,96,0.00,,,0.00,WUHU216DAVISVP2,2013-02-08 09:30:00,
2013-02-08 01:31:00,37.2,36.2,29.97,NNW,329,0.0,1.0,96,0.00,,,0.00,WUHU216DAVISVP2,2013-02-08 09:31:00,
2013-02-08 01:36:00,37.1,36.0,29.97,NW,325,1.0,2.0,96,0.00,,,0.00,WUHU216DAVISVP2,2013-02-08 09:36:00,
2013-02-08 01:41:00,37.1,36.0,29.96,NW,325,0.0,2.0,96,0.00,,,0.00,WUHU216DAVISVP2,2013-02-08 09:41:00,
2013-02-08 01:46:00,37.1,36.0,29.96,NW,325,0.0,2.0,96,0.00,,,0.00,WUHU216DAVISVP2,2013-02-08 09:46:00,
2013-02-08 01:51:00,37.1,36.0,29.96,NW,325,0.0,2.0,96,0.00,,,0.00,WUHU216DAVISVP2,2013-02-08 09:51:00,
2013-02-08 01:56:00,37.1,36.1,29.96,NW,325,0.0,1.0,96,0.00,,,0.00,WUHU216DAVISVP2,2013-02-08 09:56:00,
2013-02-08 02:00:00,37.1,36.1,29.96,NW,315,0.0,2.0,96,0.00,,,0.00,WUHU216DAVISVP2,2013-02-08 10:00:00,
2013-02-08 02:01:00,37.1,36.0,29.96,NW,325,0.0,0.0,96,0.01,,,0.01,WUHU216DAVISVP2,2013-02-08 10:01:00,
2013-02-08 02:06:00,37.1,36.0,29.96,NW,325,0.0,2.0,96,0.01,,,0.01,WUHU216DAVISVP2,2013-02-08 10:06:00,
2013-02-08 02:11:00,37.1,36.0,29.96,NW,325,0.0,2.0,96,0.01,,,0.01,WUHU216DAVISVP2,2013-02-08 10:11:00,
2013-02-08 02:16:00,37.2,36.1,29.96,NW,324,0.0,2.0,96,0.01,,,0.01,WUHU216DAVISVP2,2013-02-08 10:16:00,
2013-02-08 02:21:00,37.3,36.2,29.96,NW,324,0.0,2.0,96,0.01,,,0.01,WUHU216DAVISVP2,2013-02-08 10:21:00,
2013-02-08 02:26:00,37.2,36.2,29.95,NW,324,0.0,2.0,96,0.01,,,0.01,WUHU216DAVISVP2,2013-02-08 10:26:00,
2013-02-08 02:30:00,37.3,36.3,29.95,NW,315,0.0,2.0,96,0.01,,,0.01,WUHU216DAVISVP2,2013-02-08 10:30:00,
2013-02-08 02:31:00,37.3,36.3,29.95,NW,324,0.0,1.0,96,0.01,,,0.01,WUHU216DAVISVP2,2013-02-08 10:31:00,
2013-02-08 02:36:00,37.3,36.2,29.95,NW,325,0.0,1.0,96,0.01,,,0.01,WUHU216DAVISVP2,2013-02-08 10:36:00,
2013-02-08 02:41:00,37.3,36.2,29.95,NW,325,0.0,1.0,96,0.01,,,0.01,WUHU216DAVISVP2,2013-02-08 10:41:00,
2013-02-08 02:46:00,37.4,36.3,29.94,NW,325,0.0,1.0,96,0.01,,,0.01,WUHU216DAVISVP2,2013-02-08 10:46:00,
2013-02-08 02:51:00,37.4,36.3,29.94,NW,325,0.0,1.0,96,0.01,,,0.01,WUHU216DAVISVP2,2013-02-08 10:51:00,
2013-02-08 02:56:00,37.4,36.3,29.94,NW,325,0.0,1.0,96,0.01,,,0.01,WUHU216DAVISVP2,2013-02-08 10:56:00,
2013-02-08 03:00:00,37.4,36.4,29.94,NW,315,0.0,1.0,96,0.00,,,0.01,WUHU216DAVISVP2,2013-02-08 11:00:00,
2013-02-08 03:01:00,37.4,36.3,29.94,NW,325,0.0,1.0,96,0.00,,,0.01,WUHU216DAVISVP2,2013-02-08 11:01:00,
2013-02-08 03:06:00,37.4,36.4,29.94,NW,325,0.0,1.0,96,0.00,,,0.01,WUHU216DAVISVP2,2013-02-08 11:06:00,
2013-02-08 03:11:00,37.5,36.4,29.93,NW,324,0.0,1.0,96,0.00,,,0.01,WUHU216DAVISVP2,2013-02-08 11:11:00,
2013-02-08 03:16:00,37.5,36.5,29.93,NW,325,0.0,1.0,96,0.00,,,0.01,WUHU216DAVISVP2,2013-02-08 11:16:00,
2013-02-08 03:21:00,37.5,36.4,29.93,NW,325,0.0,1.0,96,0.00,,,0.01,WUHU216DAVISVP2,2013-02-08 11:21:00,
2013-02-08 03:26:00,37.5,36.5,29.93,NW,324,0.0,1.0,96,0.00,,,0.01,WUHU216DAVISVP2,2013-02-08 11:26:00,
2013-02-08 03:30:00,37.4,36.4,29.93,NW,315,0.0,1.0,96,0.00,,,0.01,WUHU216DAVISVP2,2013-02-08 11:30:00,
2013-02-08 03:31:00,37.4,36.4,29.92,NW,324,0.0,1.0,96,0.00,,,0.01,WUHU216DAVISVP2,2013-02-08 11:31:00,
2013-02-08 03:36:00,37.4,36.3,29.93,NW,325,0.0,1.0,96,0.00,,,0.01,WUHU216DAVISVP2,2013-02-08 11:36:00,
2013-02-08 03:41:00,37.4,36.3,29.93,NW,324,0.0,1.0,96,0.00,,,0.01,WUHU216DAVISVP2,2013-02-08 11:41:00,
2013-02-08 03:46:00,37.4,36.3,29.92,NW,324,0.0,1.0,96,0.00,,,0.01,WUHU216DAVISVP2,2013-02-08 11:46:00,
2013-02-08 03:51:00,37.5,36.4,29.92,NW,324,0.0,0.0,96,0.01,,,0.02,WUHU216DAVISVP2,2013-02-08 11:51:00,
2013-02-08 03:56:00,37.5,36.5,29.92,NW,324,0.0,0.0,96,0.01,,,0.02,WUHU216DAVISVP2,2013-02-08 11:56:00,
2013-02-08 04:00:00,37.5,36.5,29.92,North,0,0.0,0.0,96,0.00,,,0.01,WUHU216DAVISVP2,2013-02-08 12:00:00,
2013-02-08 04:01:00,37.5,36.4,29.92,NW,324,0.0,0.0,96,0.01,,,0.02,WUHU216DAVISVP2,2013-02-08 12:01:00,
2013-02-08 04:06:00,37.5,36.5,29.92,NW,325,0.0,0.0,96,0.01,,,0.02,WUHU216DAVISVP2,2013-02-08 12:06:00,
2013-02-08 04:11:00,37.6,36.5,29.92,NW,324,0.0,1.0,96,0.02,,,0.03,WUHU216DAVISVP2,2013-02-08 12:11:00,
2013-02-08 04:16:00,37.6,36.5,29.92,NW,324,0.0,1.0,96,0.02,,,0.03,WUHU216DAVISVP2,2013-02-08 12:16:00,
2013-02-08 04:21:00,37.7,36.6,29.92,NW,324,0.0,1.0,96,0.02,,,0.03,WUHU216DAVISVP2,2013-02-08 12:21:00,
2013-02-08 04:26:00,37.7,36.6,29.92,NW,325,0.0,1.0,96,0.02,,,0.03,WUHU216DAVISVP2,2013-02-08 12:26:00,
2013-02-08 04:30:00,37.8,36.8,29.92,NW,315,0.0,1.0,96,0.01,,,0.02,WUHU216DAVISVP2,2013-02-08 12:30:00,
2013-02-08 04:31:00,37.8,36.7,29.92,NW,324,0.0,0.0,96,0.02,,,0.03,WUHU216DAVISVP2,2013-02-08 12:31:00,
2013-02-08 04:36:00,37.8,36.7,29.92,NW,324,0.0,0.0,96,0.02,,,0.03,WUHU216DAVISVP2,2013-02-08 12:36:00,
2013-02-08 04:41:00,37.9,36.8,29.92,NW,324,0.0,0.0,96,0.02,,,0.03,WUHU216DAVISVP2,2013-02-08 12:41:00,
2013-02-08 04:46:00,37.9,36.9,29.92,NW,325,0.0,0.0,96,0.02,,,0.03,WUHU216DAVISVP2,2013-02-08 12:46:00,
2013-02-08 04:51:00,37.9,36.8,29.92,NW,325,0.0,0.0,96,0.01,,,0.03,WUHU216DAVISVP2,2013-02-08 12:51:00,
2013-02-08 04:56:00,37.9,36.8,29.92,NW,324,0.0,0.0,96,0.01,,,0.03,WUHU216DAVISVP2,2013-02-08 12:56:00,
2013-02-08 05:00:00,37.9,36.9,29.92,North,0,0.0,0.0,96,0.01,,,0.03,WUHU216DAVISVP2,2013-02-08 13:00:00,
2013-02-08 05:01:00,38.0,36.9,29.92,NW,324,0.0,0.0,96,0.01,,,0.03,WUHU216DAVISVP2,2013-02-08 13:01:00,
2013-02-08 05:06:00,37.9,36.8,29.92,NW,325,0.0,0.0,96,0.01,,,0.03,WUHU216DAVISVP2,2013-02-08 13:06:00,
2013-02-08 05:11:00,37.9,36.8,29.92,NW,325,0.0,0.0,96,0.00,,,0.03,WUHU216DAVISVP2,2013-02-08 13:11:00,
2013-02-08 05:16:00,37.9,36.8,29.92,NW,324,0.0,0.0,96,0.00,,,0.03,WUHU216DAVISVP2,2013-02-08 13:16:00,
2013-02-08 05:21:00,37.8,36.8,29.92,NW,324,0.0,0.0,96,0.00,,,0.03,WUHU216DAVISVP2,2013-02-08 13:21:00,
2013-02-08 05:26:00,37.8,36.7,29.92,NW,325,0.0,0.0,96,0.00,,,0.03,WUHU216DAVISVP2,2013-02-08 13:26:00,
2013-02-08 05:30:00,37.7,36.7,29.92,North,0,0.0,0.0,96,0.00,,,0.03,WUHU216DAVISVP2,2013-02-08 13:30:00,
2013-02-08 05:31:00,37.8,36.7,29.92,NW,325,0.0,0.0,96,0.00,,,0.03,WUHU216DAVISVP2,2013-02-08 13:31:00,
2013-02-08 05:36:00,37.8,36.7,29.92,NW,325,0.0,0.0,96,0.00,,,0.03,WUHU216DAVISVP2,2013-02-08 13:36:00,
2013-02-08 05:41:00,37.8,36.7,29.92,NW,324,0.0,1.0,96,0.00,,,0.03,WUHU216DAVISVP2,2013-02-08 13:41:00,
2013-02-08 05:46:00,37.8,36.7,29.92,NW,324,0.0,1.0,96,0.00,,,0.03,WUHU216DAVISVP2,2013-02-08 13:46:00,
2013-02-08 05:51:00,37.8,36.7,29.92,NW,324,0.0,1.0,96,0.00,,,0.03,WUHU216DAVISVP2,2013-02-08 13:51:00,
2013-02-08 05:56:00,37.8,36.7,29.92,NW,325,0.0,1.0,96,0.00,,,0.03,WUHU216DAVISVP2,2013-02-08 13:56:00,
2013-02-08 06:00:00,37.9,36.9,29.92,NW,315,0.0,1.0,96,0.00,,,0.03,WUHU216DAVISVP2,2013-02-08 14:00:00,
2013-02-08 06:01:00,37.9,36.8,29.93,NW,325,0.0,0.0,96,0.00,,,0.03,WUHU216DAVISVP2,2013-02-08 14:01:00,
2013-02-08 06:06:00,38.0,36.9,29.93,NW,325,0.0,1.0,96,0.00,,,0.03,WUHU216DAVISVP2,2013-02-08 14:06:00,
2013-02-08 06:11:00,37.9,36.9,29.93,NW,322,0.0,1.0,96,0.00,,,0.03,WUHU216DAVISVP2,2013-02-08 14:11:00,
2013-02-08 06:16:00,37.9,36.9,29.93,NW,322,0.0,1.0,96,0.00,,,0.03,WUHU216DAVISVP2,2013-02-08 14:16:00,
2013-02-08 06:22:00,37.9,36.8,29.93,NW,322,0.0,1.0,96,0.00,,,0.03,WUHU216DAVISVP2,2013-02-08 14:22:00,
2013-02-08 06:27:00,37.9,36.8,29.93,NW,322,0.0,1.0,96,0.00,,,0.03,WUHU216DAVISVP2,2013-02-08 14:27:00,
2013-02-08 06:30:00,37.9,36.9,29.93,NW,315,0.0,1.0,96,0.00,,,0.03,WUHU216DAVISVP2,2013-02-08 14:30:00,
2013-02-08 06:33:00,37.9,36.8,29.93,NW,322,0.0,1.0,96,0.01,,,0.04,WUHU216DAVISVP2,2013-02-08 14:33:00,
2013-02-08 06:38:00,37.9,36.8,29.93,NW,322,0.0,0.0,96,0.01,,,0.04,WUHU216DAVISVP2,2013-02-08 14:38:00,
2013-02-08 06:43:00,37.9,36.8,29.93,NW,323,0.0,0.0,96,0.01,,,0.04,WUHU216DAVISVP2,2013-02-08 14:43:00,
2013-02-08 06:48:00,37.9,36.8,29.93,NW,323,0.0,0.0,96,0.01,,,0.04,WUHU216DAVISVP2,2013-02-08 14:48:00,
2013-02-08 06:53:00,37.9,36.8,29.94,NW,322,0.0,0.0,96,0.01,,,0.04,WUHU216DAVISVP2,2013-02-08 14:53:00,
2013-02-08 06:58:00,37.9,36.8,29.94,NW,322,0.0,1.0,96,0.01,,,0.04,WUHU216DAVISVP2,2013-02-08 14:58:00,
2013-02-08 07:00:00,37.9,36.9,29.94,NW,315,0.0,1.0,96,0.00,,,0.03,WUHU216DAVISVP2,2013-02-08 15:00:00,
2013-02-08 07:03:00,37.9,36.8,29.94,NW,323,0.0,1.0,96,0.01,,,0.04,WUHU216DAVISVP2,2013-02-08 15:03:00,
2013-02-08 07:08:00,38.0,36.9,29.94,NW,322,0.0,1.0,96,0.01,,,0.04,WUHU216DAVISVP2,2013-02-08 15:08:00,
2013-02-08 07:13:00,38.0,36.9,29.94,NW,323,0.0,1.0,96,0.01,,,0.04,WUHU216DAVISVP2,2013-02-08 15:13:00,
2013-02-08 07:18:00,38.0,36.9,29.94,NW,323,0.0,1.0,96,0.01,,,0.04,WUHU216DAVISVP2,2013-02-08 15:18:00,
2013-02-08 07:23:00,38.0,36.9,29.94,NW,323,0.0,1.0,96,0.01,,,0.04,WUHU216DAVISVP2,2013-02-08 15:23:00,
2013-02-08 07:28:00,38.0,36.9,29.94,NW,323,0.0,1.0,96,0.01,,,0.04,WUHU216DAVISVP2,2013-02-08 15:28:00,
2013-02-08 07:30:00,38.0,37.0,29.94,NW,315,0.0,1.0,96,0.01,,,0.04,WUHU216DAVISVP2,2013-02-08 15:30:00,
2013-02-08 07:33:00,37.9,37.1,29.94,NW,323,0.0,0.0,97,0.00,,,0.04,WUHU216DAVISVP2,2013-02-08 15:33:00,
2013-02-08 07:38:00,38.0,37.2,29.94,NW,323,0.0,0.0,97,0.00,,,0.04,WUHU216DAVISVP2,2013-02-08 15:38:00,
2013-02-08 07:43:00,38.1,37.3,29.94,NW,322,0.0,0.0,97,0.00,,,0.04,WUHU216DAVISVP2,2013-02-08 15:43:00,
2013-02-08 07:48:00,38.2,37.4,29.94,NW,322,0.0,0.0,97,0.00,,,0.04,WUHU216DAVISVP2,2013-02-08 15:48:00,
2013-02-08 07:53:00,38.3,37.5,29.94,NW,322,0.0,0.0,97,0.00,,,0.04,WUHU216DAVISVP2,2013-02-08 15:53:00,
2013-02-08 07:58:00,38.4,37.6,29.94,NW,322,0.0,1.0,97,0.00,,,0.04,WUHU216DAVISVP2,2013-02-08 15:58:00,
2013-02-08 08:00:00,38.4,37.6,29.95,NW,315,0.0,1.0,97,0.00,,,0.04,WUHU216DAVISVP2,2013-02-08 16:00:00,
2013-02-08 08:03:00,38.4,37.6,29.95,NW,323,0.0,1.0,97,0.00,,,0.04,WUHU216DAVISVP2,2013-02-08 16:03:00,
2013-02-08 08:08:00,38.5,37.7,29.95,NW,323,0.0,1.0,97,0.00,,,0.04,WUHU216DAVISVP2,2013-02-08 16:08:00,
2013-02-08 08:13:00,38.6,37.8,29.95,NW,322,0.0,1.0,97,0.00,,,0.04,WUHU216DAVISVP2,2013-02-08 16:13:00,
2013-02-08 08:18:00,38.8,38.0,29.95,NW,322,0.0,0.0,97,0.00,,,0.04,WUHU216DAVISVP2,2013-02-08 16:18:00,
2013-02-08 08:23:00,39.0,38.2,29.95,NW,322,0.0,0.0,97,0.00,,,0.04,WUHU216DAVISVP2,2013-02-08 16:23:00,
2013-02-08 08:28:00,39.1,38.3,29.95,NW,322,0.0,0.0,97,0.00,,,0.04,WUHU216DAVISVP2,2013-02-08 16:28:00,
2013-02-08 08:30:00,39.1,38.3,29.95,NW,315,0.0,1.0,97,0.00,,,0.04,WUHU216DAVISVP2,2013-02-08 16:30:00,
2013-02-08 08:33:00,39.2,38.4,29.95,NW,310,0.0,1.0,97,0.00,,,0.04,WUHU216DAVISVP2,2013-02-08 16:33:00,
2013-02-08 08:38:00,39.3,38.5,29.95,NW,310,0.0,1.0,97,0.00,,,0.04,WUHU216DAVISVP2,2013-02-08 16:38:00,
2013-02-08 08:43:00,39.5,38.7,29.95,NW,310,0.0,1.0,97,0.00,,,0.04,WUHU216DAVISVP2,2013-02-08 16:43:00,
2013-02-08 08:48:00,39.6,38.8,29.95,NW,310,0.0,1.0,97,0.00,,,0.04,WUHU216DAVISVP2,2013-02-08 16:48:00,
2013-02-08 08:53:00,39.7,38.9,29.95,NW,310,0.0,1.0,97,0.00,,,0.04,WUHU216DAVISVP2,2013-02-08 16:53:00,
2013-02-08 08:58:00,39.9,39.1,29.95,NW,310,0.0,1.0,97,0.00,,,0.04,WUHU216DAVISVP2,2013-02-08 16:58:00,
2013-02-08 09:00:00,40.0,39.2,29.95,NW,315,0.0,1.0,97,0.00,,,0.04,WUHU216DAVISVP2,2013-02-08 17:00:00,
2013-02-08 09:03:00,40.2,39.4,29.95,NW,310,0.0,0.0,97,0.00,,,0.04,WUHU216DAVISVP2,2013-02-08 17:03:00,
2013-02-08 09:08:00,40.4,39.6,29.95,NW,310,0.0,0.0,97,0.00,,,0.04,WUHU216DAVISVP2,2013-02-08 17:08:00,
2013-02-08 09:13:00,40.6,39.8,29.95,NW,310,0.0,0.0,97,0.00,,,0.04,WUHU216DAVISVP2,2013-02-08 17:13:00,
2013-02-08 09:18:00,40.7,39.9,29.95,NW,310,0.0,1.0,97,0.00,,,0.04,WUHU216DAVISVP2,2013-02-08 17:18:00,
2013-02-08 09:23:00,40.9,40.1,29.96,NW,311,0.0,2.0,97,0.00,,,0.04,WUHU216DAVISVP2,2013-02-08 17:23:00,
2013-02-08 09:28:00,41.1,40.3,29.96,WNW,299,0.0,3.0,97,0.00,,,0.04,WUHU216DAVISVP2,2013-02-08 17:28:00,
2013-02-08 09:30:00,41.2,40.4,29.96,WNW,293,0.0,3.0,97,0.00,,,0.04,WUHU216DAVISVP2,2013-02-08 17:30:00,
2013-02-08 09:33:00,41.5,40.7,29.96,NNW,343,1.0,5.0,97,0.00,,,0.04,WUHU216DAVISVP2,2013-02-08 17:33:00,
2013-02-08 09:38:00,41.7,40.9,29.96,NW,304,1.0,5.0,97,0.00,,,0.04,WUHU216DAVISVP2,2013-02-08 17:38:00,
2013-02-08 09:43:00,41.7,40.9,29.96,WNW,284,2.0,5.0,97,0.00,,,0.04,WUHU216DAVISVP2,2013-02-08 17:43:00,
2013-02-08 09:48:00,41.7,40.9,29.96,NW,321,0.0,5.0,97,0.00,,,0.04,WUHU216DAVISVP2,2013-02-08 17:48:00,
2013-02-08 09:53:00,41.9,41.1,29.97,WNW,290,0.0,5.0,97,0.00,,,0.04,WUHU216DAVISVP2,2013-02-08 17:53:00,
2013-02-08 09:58:00,42.1,41.0,29.97,North,5,0.0,5.0,96,0.00,,,0.04,WUHU216DAVISVP2,2013-02-08 17:58:00,
2013-02-08 10:00:00,42.2,41.4,29.97,NW,315,1.0,5.0,97,0.00,,,0.04,WUHU216DAVISVP2,2013-02-08 18:00:00,
2013-02-08 10:03:00,42.2,41.1,29.97,North,360,0.0,5.0,96,0.00,,,0.04,WUHU216DAVISVP2,2013-02-08 18:03:00,
2013-02-08 10:08:00,42.3,40.9,29.97,NNW,346,2.0,5.0,95,0.00,,,0.04,WUHU216DAVISVP2,2013-02-08 18:08:00,
2013-02-08 10:13:00,42.7,41.3,29.97,NNW,327,1.0,5.0,95,0.00,,,0.04,WUHU216DAVISVP2,2013-02-08 18:13:00,
2013-02-08 10:18:00,43.0,41.3,29.97,NNE,32,2.0,5.0,94,0.00,,,0.04,WUHU216DAVISVP2,2013-02-08 18:18:00,
2013-02-08 10:23:00,43.2,41.0,29.97,WNW,296,0.0,6.0,92,0.00,,,0.04,WUHU216DAVISVP2,2013-02-08 18:23:00,
2013-02-08 10:28:00,43.3,41.1,29.97,WNW,302,0.0,6.0,92,0.00,,,0.04,WUHU216DAVISVP2,2013-02-08 18:28:00,
2013-02-08 10:30:00,43.3,41.1,29.97,WNW,293,1.0,6.0,92,0.00,,,0.04,WUHU216DAVISVP2,2013-02-08 18:30:00,
2013-02-08 10:33:00,43.3,40.8,29.97,West,281,1.0,6.0,91,0.00,,,0.04,WUHU216DAVISVP2,2013-02-08 18:33:00,
2013-02-08 10:38:00,43.4,40.9,29.97,WNW,303,1.0,5.0,91,0.00,,,0.04,WUHU216DAVISVP2,2013-02-08 18:38:00,
2013-02-08 10:43:00,43.6,41.1,29.97,WNW,294,0.0,5.0,91,0.00,,,0.04,WUHU216DAVISVP2,2013-02-08 18:43:00,
2013-02-08 10:48:00,44.0,41.5,29.97,NW,304,0.0,5.0,91,0.00,,,0.04,WUHU216DAVISVP2,2013-02-08 18:48:00,
2013-02-08 10:54:00,44.5,42.3,29.98,NW,306,1.0,3.0,92,0.00,,,0.04,WUHU216DAVISVP2,2013-02-08 18:54:00,
2013-02-08 10:59:00,45.1,41.7,29.97,North,9,1.0,3.0,88,0.00,,,0.04,WUHU216DAVISVP2,2013-02-08 18:59:00,
2013-02-08 11:00:00,45.1,41.8,29.97,WNW,293,1.0,5.0,88,0.00,,,0.04,WUHU216DAVISVP2,2013-02-08 19:00:00,
2013-02-08 11:04:00,45.2,41.8,29.98,NE,43,0.0,3.0,88,0.00,,,0.04,WUHU216DAVISVP2,2013-02-08 19:04:00,
2013-02-08 11:09:00,45.0,41.6,29.98,North,11,0.0,3.0,88,0.00,,,0.04,WUHU216DAVISVP2,2013-02-08 19:09:00,
2013-02-08 11:14:00,44.8,41.4,29.98,SE,141,2.0,3.0,88,0.00,,,0.04,WUHU216DAVISVP2,2013-02-08 19:14:00,
2013-02-08 11:19:00,44.6,41.2,29.98,WNW,300,0.0,4.0,88,0.00,,,0.04,WUHU216DAVISVP2,2013-02-08 19:19:00,
2013-02-08 11:24:00,44.3,40.9,29.98,East,96,0.0,4.0,88,0.00,,,0.04,WUHU216DAVISVP2,2013-02-08 19:24:00,
2013-02-08 11:29:00,44.0,40.4,29.98,North,11,0.0,4.0,87,0.00,,,0.04,WUHU216DAVISVP2,2013-02-08 19:29:00,
2013-02-08 11:30:00,44.0,40.7,29.98,North,0,0.0,4.0,88,0.00,,,0.04,WUHU216DAVISVP2,2013-02-08 19:30:00,
2013-02-08 11:34:00,43.9,40.5,29.98,North,5,0.0,4.0,88,0.00,,,0.04,WUHU216DAVISVP2,2013-02-08 19:34:00,
2013-02-08 11:39:00,44.2,41.1,29.97,NW,304,0.0,3.0,89,0.00,,,0.04,WUHU216DAVISVP2,2013-02-08 19:39:00,
2013-02-08 11:44:00,45.0,41.9,29.97,West,281,0.0,3.0,89,0.00,,,0.04,WUHU216DAVISVP2,2013-02-08 19:44:00,
2013-02-08 11:49:00,45.6,41.3,29.97,ENE,74,0.0,6.0,85,0.00,,,0.04,WUHU216DAVISVP2,2013-02-08 19:49:00,
2013-02-08 11:54:00,45.8,40.9,29.97,ENE,72,0.0,6.0,83,0.00,,,0.04,WUHU216DAVISVP2,2013-02-08 19:54:00,
2013-02-08 11:59:00,45.6,40.7,29.97,NNW,328,1.0,6.0,83,0.00,,,0.04,WUHU216DAVISVP2,2013-02-08 19:59:00,
2013-02-08 12:00:00,45.6,41.0,29.97,NW,315,1.0,6.0,84,0.00,,,0.04,WUHU216DAVISVP2,2013-02-08 20:00:00,
2013-02-08 12:04:00,45.4,40.2,29.97,NW,315,1.0,6.0,82,0.00,,,0.04,WUHU216DAVISVP2,2013-02-08 20:04:00,
2013-02-08 12:09:00,45.3,40.7,29.97,ENE,59,0.0,4.0,84,0.00,,,0.04,WUHU216DAVISVP2,2013-02-08 20:09:00,
2013-02-08 12:14:00,45.2,40.3,29.97,ENE,65,2.0,6.0,83,0.00,,,0.04,WUHU216DAVISVP2,2013-02-08 20:14:00,
2013-02-08 12:19:00,45.1,40.2,29.97,NE,44,0.0,6.0,83,0.00,,,0.04,WUHU216DAVISVP2,2013-02-08 20:19:00,
2013-02-08 12:24:00,45.4,40.2,29.97,NNW,327,1.0,6.0,82,0.00,,,0.04,WUHU216DAVISVP2,2013-02-08 20:24:00,
2013-02-08 12:29:00,46.1,41.2,29.96,WNW,292,2.0,6.0,83,0.00,,,0.04,WUHU216DAVISVP2,2013-02-08 20:29:00,
2013-02-08 12:30:00,46.3,41.1,29.96,WNW,293,1.0,6.0,82,0.00,,,0.04,WUHU216DAVISVP2,2013-02-08 20:30:00,
2013-02-08 12:34:00,47.3,41.8,29.96,WSW,240,1.0,5.0,81,0.00,,,0.04,WUHU216DAVISVP2,2013-02-08 20:34:00,
2013-02-08 12:39:00,47.9,41.7,29.96,NNE,18,1.0,5.0,79,0.00,,,0.04,WUHU216DAVISVP2,2013-02-08 20:39:00,
2013-02-08 12:44:00,48.5,42.0,29.96,North,355,2.0,5.0,78,0.00,,,0.04,WUHU216DAVISVP2,2013-02-08 20:44:00,
2013-02-08 12:49:00,49.2,41.7,29.95,NNW,347,1.0,5.0,75,0.00,,,0.04,WUHU216DAVISVP2,2013-02-08 20:49:00,
2013-02-08 12:54:00,49.8,41.2,29.95,ENE,78,2.0,5.0,72,0.00,,,0.04,WUHU216DAVISVP2,2013-02-08 20:54:00,
2013-02-08 12:59:00,49.9,41.3,29.95,NW,325,2.0,5.0,72,0.00,,,0.04,WUHU216DAVISVP2,2013-02-08 20:59:00,
2013-02-08 13:00:00,49.9,41.6,29.95,NNW,338,1.0,5.0,73,0.00,,,0.04,WUHU216DAVISVP2,2013-02-08 21:00:00,
2013-02-08 13:04:00,49.4,40.1,29.95,North,349,1.0,5.0,70,0.00,,,0.04,WUHU216DAVISVP2,2013-02-08 21:04:00,
2013-02-08 13:09:00,49.1,40.9,29.95,North,355,0.0,5.0,73,0.00,,,0.04,WUHU216DAVISVP2,2013-02-08 21:09:00,
2013-02-08 13:14:00,49.7,40.4,29.94,NNE,30,0.0,5.0,70,0.00,,,0.04,WUHU216DAVISVP2,2013-02-08 21:14:00,
2013-02-08 13:19:00,50.3,41.4,29.94,North,5,5.0,5.0,71,0.00,,,0.04,WUHU216DAVISVP2,2013-02-08 21:19:00,
2013-02-08 13:24:00,50.8,40.7,29.94,NW,320,1.0,6.0,68,0.00,,,0.04,WUHU216DAVISVP2,2013-02-08 21:24:00,
2013-02-08 13:29:00,50.7,39.9,29.94,NW,318,2.0,10.0,66,0.00,,,0.04,WUHU216DAVISVP2,2013-02-08 21:29:00,
2013-02-08 13:30:00,50.7,40.1,29.94,NNW,338,2.0,10.0,67,0.00,,,0.04,WUHU216DAVISVP2,2013-02-08 21:30:00,
2013-02-08 13:34:00,50.5,40.8,29.94,NW,314,1.0,10.0,69,0.00,,,0.04,WUHU216DAVISVP2,2013-02-08 21:34:00,
2013-02-08 13:39:00,50.3,40.2,29.94,NNE,30,2.0,10.0,68,0.00,,,0.04,WUHU216DAVISVP2,2013-02-08 21:39:00,
2013-02-08 13:44:00,49.3,39.3,29.94,NNE,12,2.0,7.0,68,0.00,,,0.04,WUHU216DAVISVP2,2013-02-08 21:44:00,
2013-02-08 13:49:00,49.2,39.6,29.94,NNW,344,0.0,7.0,69,0.00,,,0.04,WUHU216DAVISVP2,2013-02-08 21:49:00,
2013-02-08 13:54:00,49.7,40.0,29.94,NNW,335,1.0,5.0,69,0.00,,,0.04,WUHU216DAVISVP2,2013-02-08 21:54:00,
2013-02-08 13:59:00,50.2,40.4,29.94,East,80,3.0,6.0,69,0.00,,,0.04,WUHU216DAVISVP2,2013-02-08 21:59:00,
2013-02-08 14:00:00,50.3,39.4,29.94,North,0,1.0,7.0,66,0.00,,,0.04,WUHU216DAVISVP2,2013-02-08 22:00:00,
2013-02-08 14:04:00,50.1,39.2,29.94,North,5,2.0,6.0,66,0.00,,,0.04,WUHU216DAVISVP2,2013-02-08 22:04:00,
2013-02-08 14:09:00,49.5,39.1,29.94,NW,315,0.0,6.0,67,0.00,,,0.04,WUHU216DAVISVP2,2013-02-08 22:09:00,
2013-02-08 14:14:00,49.4,38.6,29.95,NNW,333,1.0,6.0,66,0.00,,,0.04,WUHU216DAVISVP2,2013-02-08 22:14:00,
2013-02-08 14:19:00,49.4,38.6,29.95,NW,304,1.0,6.0,66,0.00,,,0.04,WUHU216DAVISVP2,2013-02-08 22:19:00,
2013-02-08 14:24:00,49.7,39.3,29.95,ESE,104,2.0,6.0,67,0.00,,,0.04,WUHU216DAVISVP2,2013-02-08 22:24:00,
2013-02-08 14:29:00,50.2,40.5,29.95,WNW,302,1.0,5.0,69,0.00,,,0.04,WUHU216DAVISVP2,2013-02-08 22:29:00,
2013-02-08 14:30:00,50.4,40.2,29.95,North,0,1.0,6.0,68,0.00,,,0.04,WUHU216DAVISVP2,2013-02-08 22:30:00,
2013-02-08 14:34:00,51.0,40.0,29.94,North,355,0.0,5.0,66,0.00,,,0.04,WUHU216DAVISVP2,2013-02-08 22:34:00,
2013-02-08 14:39:00,51.8,40.1,29.94,ENE,57,1.0,5.0,64,0.00,,,0.04,WUHU216DAVISVP2,2013-02-08 22:39:00,
2013-02-08 14:44:00,52.3,39.7,29.94,West,281,2.0,6.0,62,0.00,,,0.04,WUHU216DAVISVP2,2013-02-08 22:44:00,
2013-02-08 14:49:00,52.9,40.3,29.94,West,270,3.0,6.0,62,0.00,,,0.04,WUHU216DAVISVP2,2013-02-08 22:49:00,
2013-02-08 14:54:00,53.5,39.6,29.94,NE,41,1.0,6.0,59,0.00,,,0.04,WUHU216DAVISVP2,2013-02-08 22:54:00,
2013-02-08 14:59:00,53.8,39.9,29.93,WNW,294,3.0,6.0,59,0.00,,,0.04,WUHU216DAVISVP2,2013-02-08 22:59:00,
2013-02-08 15:00:00,54.0,40.8,29.93,North,0,1.0,6.0,61,0.00,,,0.04,WUHU216DAVISVP2,2013-02-08 23:00:00,
2013-02-08 15:04:00,54.5,40.1,29.93,NW,311,0.0,5.0,58,0.00,,,0.04,WUHU216DAVISVP2,2013-02-08 23:04:00,
2013-02-08 15:09:00,54.4,38.1,29.93,NW,325,0.0,5.0,54,0.00,,,0.04,WUHU216DAVISVP2,2013-02-08 23:09:00,
2013-02-08 15:14:00,54.4,38.1,29.93,NW,306,2.0,5.0,54,0.00,,,0.04,WUHU216DAVISVP2,2013-02-08 23:14:00,
2013-02-08 15:19:00,54.2,38.4,29.93,NW,323,1.0,6.0,55,0.00,,,0.04,WUHU216DAVISVP2,2013-02-08 23:19:00,
2013-02-08 15:24:00,53.6,38.3,29.93,NW,319,1.0,6.0,56,0.00,,,0.04,WUHU216DAVISVP2,2013-02-08 23:24:00,
2013-02-08 15:29:00,52.6,37.9,29.93,NNW,346,3.0,7.0,57,0.00,,,0.04,WUHU216DAVISVP2,2013-02-08 23:29:00,
2013-02-08 15:30:00,52.4,37.6,29.93,NW,315,2.0,7.0,57,0.00,,,0.04,WUHU216DAVISVP2,2013-02-08 23:30:00,
2013-02-08 15:35:00,51.2,37.0,29.94,North,351,2.0,7.0,58,0.00,,,0.04,WUHU216DAVISVP2,2013-02-08 23:35:00,
2013-02-08 15:40:00,50.9,38.4,29.94,NW,306,0.0,7.0,62,0.00,,,0.04,WUHU216DAVISVP2,2013-02-08 23:40:00,
2013-02-08 15:45:00,51.1,38.2,29.94,WNW,290,1.0,7.0,61,0.00,,,0.04,WUHU216DAVISVP2,2013-02-08 23:45:00,
2013-02-08 15:50:00,51.2,38.2,29.94,WNW,297,0.0,4.0,61,0.00,,,0.04,WUHU216DAVISVP2,2013-02-08 23:50:00,
2013-02-08 15:55:00,51.4,39.2,29.94,WNW,298,0.0,4.0,63,0.00,,,0.04,WUHU216DAVISVP2,2013-02-08 23:55:00,
2013-02-08 16:00:00,51.8,38.3,29.94,NNW,329,0.0,4.0,60,0.00,,,0.04,WUHU216DAVISVP2,2013-02-09 00:00:00,
2013-02-08 16:05:00,52.1,38.7,29.94,NNW,333,1.0,6.0,60,0.00,,,0.04,WUHU216DAVISVP2,2013-02-09 00:05:00,
2013-02-08 16:10:00,52.1,39.6,29.94,NW,326,2.0,7.0,62,0.00,,,0.04,WUHU216DAVISVP2,2013-02-09 00:10:00,
2013-02-08 16:15:00,52.4,39.3,29.94,NW,309,1.0,9.0,61,0.00,,,0.04,WUHU216DAVISVP2,2013-02-09 00:15:00,
2013-02-08 16:20:00,52.1,38.7,29.93,NW,320,1.0,10.0,60,0.00,,,0.04,WUHU216DAVISVP2,2013-02-09 00:20:00,
2013-02-08 16:25:00,52.0,39.1,29.94,NW,325,3.0,10.0,61,0.00,,,0.04,WUHU216DAVISVP2,2013-02-09 00:25:00,
2013-02-08 16:30:00,52.1,39.2,29.93,NW,315,0.0,11.0,61,0.00,,,0.04,WUHU216DAVISVP2,2013-02-09 00:30:00,
2013-02-08 16:35:00,52.0,39.5,29.93,North,5,0.0,11.0,62,0.00,,,0.04,WUHU216DAVISVP2,2013-02-09 00:35:00,
2013-02-08 16:40:00,52.1,40.0,29.93,NW,316,0.0,11.0,63,0.00,,,0.04,WUHU216DAVISVP2,2013-02-09 00:40:00,
2013-02-08 16:45:00,51.9,39.8,29.93,WNW,298,0.0,11.0,63,0.00,,,0.04,WUHU216DAVISVP2,2013-02-09 00:45:00,
2013-02-08 16:50:00,51.8,40.0,29.93,WNW,298,1.0,7.0,64,0.00,,,0.04,WUHU216DAVISVP2,2013-02-09 00:50:00,
2013-02-08 16:55:00,51.7,40.4,29.93,NW,310,0.0,6.0,65,0.00,,,0.04,WUHU216DAVISVP2,2013-02-09 00:55:00,
2013-02-08 17:00:00,51.5,40.5,29.94,NW,316,0.0,6.0,66,0.00,,,0.04,WUHU216DAVISVP2,2013-02-09 01:00:00,
2013-02-08 17:05:00,51.1,40.2,29.94,NNW,345,0.0,6.0,66,0.00,,,0.04,WUHU216DAVISVP2,2013-02-09 01:05:00,
2013-02-08 17:10:00,50.4,40.0,29.94,WNW,292,3.0,8.0,67,0.00,,,0.04,WUHU216DAVISVP2,2013-02-09 01:10:00,
2013-02-08 17:15:00,49.9,39.8,29.94,WNW,290,6.0,10.0,68,0.00,,,0.04,WUHU216DAVISVP2,2013-02-09 01:15:00,
2013-02-08 17:20:00,49.1,39.5,29.94,WNW,302,2.0,10.0,69,0.00,,,0.04,WUHU216DAVISVP2,2013-02-09 01:20:00,
2013-02-08 17:25:00,48.6,39.3,29.94,WNW,284,3.0,10.0,70,0.00,,,0.04,WUHU216DAVISVP2,2013-02-09 01:25:00,
2013-02-08 17:30:00,48.0,38.8,29.94,NNW,341,1.0,10.0,70,0.00,,,0.04,WUHU216DAVISVP2,2013-02-09 01:30:00,
2013-02-08 17:35:00,47.4,38.6,29.94,North,5,1.0,6.0,71,0.00,,,0.04,WUHU216DAVISVP2,2013-02-09 01:35:00,
2013-02-08 17:40:00,46.9,38.4,29.94,NNW,328,0.0,5.0,72,0.00,,,0.04,WUHU216DAVISVP2,2013-02-09 01:40:00,
2013-02-08 17:45:00,46.6,38.5,29.95,NNW,339,0.0,5.0,73,0.00,,,0.04,WUHU216DAVISVP2,2013-02-09 01:45:00,
2013-02-08 17:50:00,46.2,38.4,29.95,NNW,339,1.0,5.0,74,0.00,,,0.04,WUHU216DAVISVP2,2013-02-09 01:50:00,
2013-02-08 17:55:00,45.9,37.8,29.95,NNW,339,0.0,5.0,73,0.00,,,0.04,WUHU216DAVISVP2,2013-02-09 01:55:00,
2013-02-08 18:00:00,45.6,37.9,29.95,NNW,339,0.0,2.0,74,0.00,,,0.04,WUHU216DAVISVP2,2013-02-09 02:00:00,
2013-02-08 18:05:00,45.3,37.6,29.95,NNW,340,0.0,2.0,74,0.00,,,0.04,WUHU216DAVISVP2,2013-02-09 02:05:00,
2013-02-08 18:10:00,45.1,37.4,29.95,WNW,298,0.0,2.0,74,0.00,,,0.04,WUHU216DAVISVP2,2013-02-09 02:10:00,
2013-02-08 18:15:00,45.0,37.3,29.95,NW,321,0.0,3.0,74,0.00,,,0.04,WUHU216DAVISVP2,2013-02-09 02:15:00,
2013-02-08 18:20:00,44.9,37.5,29.95,NNW,335,0.0,3.0,75,0.00,,,0.04,WUHU216DAVISVP2,2013-02-09 02:20:00,
2013-02-08 18:25:00,44.7,37.3,29.95,NNW,327,0.0,3.0,75,0.00,,,0.04,WUHU216DAVISVP2,2013-02-09 02:25:00,
2013-02-08 18:30:00,44.5,37.5,29.95,NW,325,0.0,3.0,76,0.00,,,0.04,WUHU216DAVISVP2,2013-02-09 02:30:00,
2013-02-08 18:35:00,44.4,37.6,29.95,NW,325,0.0,2.0,77,0.00,,,0.04,WUHU216DAVISVP2,2013-02-09 02:35:00,
2013-02-08 18:40:00,44.2,37.8,29.95,NW,325,0.0,2.0,78,0.00,,,0.04,WUHU216DAVISVP2,2013-02-09 02:40:00,
2013-02-08 18:45:00,43.9,37.5,29.95,NW,325,0.0,2.0,78,0.00,,,0.04,WUHU216DAVISVP2,2013-02-09 02:45:00,
2013-02-08 18:50:00,43.6,37.5,29.95,NW,325,0.0,1.0,79,0.00,,,0.04,WUHU216DAVISVP2,2013-02-09 02:50:00,
2013-02-08 18:55:00,43.3,37.6,29.95,NW,325,0.0,1.0,80,0.00,,,0.04,WUHU216DAVISVP2,2013-02-09 02:55:00,
2013-02-08 19:00:00,42.9,37.5,29.96,NNE,19,0.0,1.0,81,0.00,,,0.04,WUHU216DAVISVP2,2013-02-09 03:00:00,
2013-02-08 19:05:00,42.7,37.6,29.95,NNE,19,0.0,1.0,82,0.00,,,0.04,WUHU216DAVISVP2,2013-02-09 03:05:00,
2013-02-08 19:10:00,42.5,37.7,29.95,NNE,19,0.0,1.0,83,0.00,,,0.04,WUHU216DAVISVP2,2013-02-09 03:10:00,
2013-02-08 19:15:00,42.3,37.5,29.95,NNE,19,0.0,1.0,83,0.00,,,0.04,WUHU216DAVISVP2,2013-02-09 03:15:00,
2013-02-08 19:20:00,42.1,37.6,29.95,NNE,19,0.0,0.0,84,0.00,,,0.04,WUHU216DAVISVP2,2013-02-09 03:20:00,
2013-02-08 19:25:00,41.9,37.4,29.95,NNE,19,0.0,0.0,84,0.00,,,0.04,WUHU216DAVISVP2,2013-02-09 03:25:00,
2013-02-08 19:30:00,41.6,37.4,29.95,NNE,19,0.0,1.0,85,0.00,,,0.04,WUHU216DAVISVP2,2013-02-09 03:30:00,
2013-02-08 19:35:00,41.4,37.2,29.95,NNE,19,0.0,1.0,85,0.00,,,0.04,WUHU216DAVISVP2,2013-02-09 03:35:00,
2013-02-08 19:40:00,41.1,37.2,29.95,NNE,19,0.0,1.0,86,0.00,,,0.04,WUHU216DAVISVP2,2013-02-09 03:40:00,
2013-02-08 19:45:00,40.9,37.3,29.95,NNE,19,0.0,1.0,87,0.00,,,0.04,WUHU216DAVISVP2,2013-02-09 03:45:00,
2013-02-08 19:50:00,40.7,37.1,29.95,NNE,19,0.0,0.0,87,0.00,,,0.04,WUHU216DAVISVP2,2013-02-09 03:50:00,
2013-02-08 19:55:00,40.5,36.9,29.95,NNE,19,0.0,0.0,87,0.00,,,0.04,WUHU216DAVISVP2,2013-02-09 03:55:00,
2013-02-08 20:00:00,40.3,36.7,29.95,NNE,19,0.0,0.0,87,0.00,,,0.04,WUHU216DAVISVP2,2013-02-09 04:00:00,
2013-02-08 20:05:00,40.0,36.7,29.95,NNE,19,0.0,0.0,88,0.00,,,0.04,WUHU216DAVISVP2,2013-02-09 04:05:00,
2013-02-08 20:10:00,39.8,36.5,29.96,NNE,19,0.0,0.0,88,0.00,,,0.04,WUHU216DAVISVP2,2013-02-09 04:10:00,
2013-02-08 20:15:00,39.6,36.6,29.96,NNE,19,0.0,1.0,89,0.00,,,0.04,WUHU216DAVISVP2,2013-02-09 04:15:00,
2013-02-08 20:20:00,39.4,36.4,29.96,NNE,19,0.0,1.0,89,0.00,,,0.04,WUHU216DAVISVP2,2013-02-09 04:20:00,
2013-02-08 20:25:00,39.2,36.2,29.96,NNE,19,0.0,1.0,89,0.00,,,0.04,WUHU216DAVISVP2,2013-02-09 04:25:00,
2013-02-08 20:30:00,38.9,35.9,29.96,NNE,19,0.0,1.0,89,0.00,,,0.04,WUHU216DAVISVP2,2013-02-09 04:30:00,
2013-02-08 20:35:00,38.8,36.1,29.96,NNE,19,0.0,0.0,90,0.00,,,0.04,WUHU216DAVISVP2,2013-02-09 04:35:00,
2013-02-08 20:40:00,38.6,35.9,29.96,NNE,19,0.0,0.0,90,0.00,,,0.04,WUHU216DAVISVP2,2013-02-09 04:40:00,
2013-02-08 20:45:00,38.4,35.7,29.96,NNE,19,0.0,0.0,90,0.00,,,0.04,WUHU216DAVISVP2,2013-02-09 04:45:00,
2013-02-08 20:50:00,38.2,35.5,29.96,NNE,19,0.0,0.0,90,0.00,,,0.04,WUHU216DAVISVP2,2013-02-09 04:50:00,
2013-02-08 20:55:00,38.0,35.6,29.96,NNE,19,0.0,0.0,91,0.00,,,0.04,WUHU216DAVISVP2,2013-02-09 04:55:00,
2013-02-08 21:00:00,37.9,35.5,29.96,NNE,19,0.0,1.0,91,0.00,,,0.04,WUHU216DAVISVP2,2013-02-09 05:00:00,
2013-02-08 21:05:00,37.8,35.4,29.96,NNE,19,0.0,1.0,91,0.00,,,0.04,WUHU216DAVISVP2,2013-02-09 05:05:00,
2013-02-08 21:10:00,37.7,35.3,29.96,NNE,19,0.0,1.0,91,0.00,,,0.04,WUHU216DAVISVP2,2013-02-09 05:10:00,
2013-02-08 21:15:00,37.7,35.5,29.96,NNE,19,0.0,1.0,92,0.00,,,0.04,WUHU216DAVISVP2,2013-02-09 05:15:00,
2013-02-08 21:20:00,37.7,35.6,29.96,NNE,19,0.0,1.0,92,0.00,,,0.04,WUHU216DAVISVP2,2013-02-09 05:20:00,
2013-02-08 21:25:00,37.7,35.5,29.96,NNE,19,0.0,1.0,92,0.00,,,0.04,WUHU216DAVISVP2,2013-02-09 05:25:00,
2013-02-08 21:30:00,37.8,35.6,29.96,NNE,19,0.0,2.0,92,0.00,,,0.04,WUHU216DAVISVP2,2013-02-09 05:30:00,
2013-02-08 21:35:00,37.7,35.5,29.96,NNE,19,0.0,2.0,92,0.00,,,0.04,WUHU216DAVISVP2,2013-02-09 05:35:00,
2013-02-08 21:40:00,37.6,35.4,29.96,NNE,19,0.0,2.0,92,0.00,,,0.04,WUHU216DAVISVP2,2013-02-09 05:40:00,
2013-02-08 21:45:00,37.5,35.6,29.96,NNE,19,0.0,2.0,93,0.00,,,0.04,WUHU216DAVISVP2,2013-02-09 05:45:00,
2013-02-08 21:50:00,37.4,35.5,29.96,NNE,19,0.0,0.0,93,0.00,,,0.04,WUHU216DAVISVP2,2013-02-09 05:50:00,
2013-02-08 21:55:00,37.3,35.1,29.96,NNE,19,0.0,0.0,92,0.00,,,0.04,WUHU216DAVISVP2,2013-02-09 05:55:00,
2013-02-08 22:00:00,37.1,34.9,29.96,NNE,19,0.0,0.0,92,0.00,,,0.04,WUHU216DAVISVP2,2013-02-09 06:00:00,
2013-02-08 22:05:00,36.9,34.7,29.96,NNE,19,0.0,0.0,92,0.00,,,0.04,WUHU216DAVISVP2,2013-02-09 06:05:00,
2013-02-08 22:10:00,36.7,34.6,29.96,NNE,19,0.0,0.0,92,0.00,,,0.04,WUHU216DAVISVP2,2013-02-09 06:10:00,
2013-02-08 22:15:00,36.4,34.2,29.96,NNE,19,0.0,0.0,92,0.00,,,0.04,WUHU216DAVISVP2,2013-02-09 06:15:00,
2013-02-08 22:20:00,36.1,34.0,29.96,NNE,19,0.0,0.0,92,0.00,,,0.04,WUHU216DAVISVP2,2013-02-09 06:20:00,
2013-02-08 22:25:00,36.0,33.9,29.96,NNE,19,0.0,0.0,92,0.00,,,0.04,WUHU216DAVISVP2,2013-02-09 06:25:00,
2013-02-08 22:30:00,35.9,34.0,29.97,NNE,19,0.0,0.0,93,0.00,,,0.04,WUHU216DAVISVP2,2013-02-09 06:30:00,
2013-02-08 22:35:00,35.8,33.9,29.97,NNE,19,0.0,0.0,93,0.00,,,0.04,WUHU216DAVISVP2,2013-02-09 06:35:00,
2013-02-08 22:40:00,35.7,33.8,29.97,NNE,19,0.0,0.0,93,0.00,,,0.04,WUHU216DAVISVP2,2013-02-09 06:40:00,
2013-02-08 22:45:00,35.6,33.8,29.97,NNE,19,0.0,0.0,93,0.00,,,0.04,WUHU216DAVISVP2,2013-02-09 06:45:00,
2013-02-08 22:50:00,35.4,33.5,29.96,NNE,19,0.0,0.0,93,0.00,,,0.04,WUHU216DAVISVP2,2013-02-09 06:50:00,
2013-02-08 22:55:00,35.2,33.3,29.96,NNE,19,0.0,0.0,93,0.00,,,0.04,WUHU216DAVISVP2,2013-02-09 06:55:00,
2013-02-08 23:00:00,35.0,33.1,29.96,NNE,19,0.0,0.0,93,0.00,,,0.04,WUHU216DAVISVP2,2013-02-09 07:00:00,
2013-02-08 23:05:00,34.8,32.9,29.96,NNE,19,0.0,0.0,93,0.00,,,0.04,WUHU216DAVISVP2,2013-02-09 07:05:00,
2013-02-08 23:10:00,34.6,32.7,29.96,NNE,19,0.0,0.0,93,0.00,,,0.04,WUHU216DAVISVP2,2013-02-09 07:10:00,
2013-02-08 23:15:00,34.4,32.5,29.96,NNE,19,0.0,0.0,93,0.00,,,0.04,WUHU216DAVISVP2,2013-02-09 07:15:00,
2013-02-08 23:20:00,34.2,32.3,29.96,NNE,19,0.0,0.0,93,0.00,,,0.04,WUHU216DAVISVP2,2013-02-09 07:20:00,
2013-02-08 23:25:00,34.0,32.1,29.96,NNE,19,0.0,0.0,93,0.00,,,0.04,WUHU216DAVISVP2,2013-02-09 07:25:00,
2013-02-08 23:30:00,33.8,31.9,29.96,NNE,19,0.0,0.0,93,0.00,,,0.04,WUHU216DAVISVP2,2013-02-09 07:30:00,
2013-02-08 23:35:00,33.7,32.1,29.97,NNE,19,0.0,0.0,94,0.00,,,0.04,WUHU216DAVISVP2,2013-02-09 07:35:00,
2013-02-08 23:40:00,33.6,32.0,29.97,NNE,19,0.0,0.0,94,0.00,,,0.04,WUHU216DAVISVP2,2013-02-09 07:40:00,
2013-02-08 23:45:00,33.6,32.0,29.97,NNE,19,0.0,0.0,94,0.00,,,0.04,WUHU216DAVISVP2,2013-02-09 07:45:00,
2013-02-08 23:50:00,33.5,31.9,29.97,NNE,19,0.0,0.0,94,0.00,,,0.04,WUHU216DAVISVP2,2013-02-09 07:50:00,
2013-02-08 23:55:00,33.5,31.9,29.97,NNE,19,0.0,0.0,94,0.00,,,0.04,WUHU216DAVISVP2,2013-02-09 07:55:00,